Terminal Aerodrome Forecast
Issued by NWS Tiyan, Guam

Home | Current Version | Previous Version | Text Only | Print | Product List | Glossary On
Versions: 1 2 3 4 5 6 7 8 9 10 11 12 13 14 15
000
FTPQ31 PGUM 031125
TAFGUM
TAF
PGUM 031125Z 0312/0418 07011KT P6SM VCSH SCT020 SCT040
     FM032300 08015G25KT P6SM VCSH SCT020 SCT040 SCT070
     FM040700 09011KT P6SM VCSH SCT020 SCT040 SCT070=

USA.gov is the U.S. government's official web portal to all federal, state and local government web resources and services.